createdAt,value
2018-05-21T00:00:03.499Z,11.36
2018-05-21T00:05:03.506Z,11.25
2018-05-21T00:10:03.498Z,11.23
2018-05-21T00:15:03.502Z,11.18
2018-05-21T00:20:03.513Z,11.05
2018-05-21T00:25:03.506Z,10.87
2018-05-21T00:30:03.517Z,10.64
2018-05-21T00:35:03.521Z,10.49
2018-05-21T00:40:03.515Z,10.44
2018-05-21T00:45:03.530Z,10.35
2018-05-21T00:50:03.521Z,10.13
2018-05-21T00:55:03.523Z,9.9
2018-05-21T01:00:03.544Z,9.78
2018-05-21T01:05:03.526Z,9.68
2018-05-21T01:10:03.533Z,9.78
2018-05-21T01:15:03.546Z,9.89
2018-05-21T01:20:03.529Z,9.94
2018-05-21T01:25:03.536Z,9.89
2018-05-21T01:30:03.551Z,9.76
2018-05-21T01:35:03.536Z,9.65
2018-05-21T01:40:03.549Z,9.47
2018-05-21T01:45:03.561Z,9.37
2018-05-21T01:50:03.551Z,9.36
2018-05-21T01:55:03.555Z,9.36
2018-05-21T02:00:03.572Z,9.45
2018-05-21T02:05:03.554Z,9.53
2018-05-21T02:10:03.561Z,9.61
2018-05-21T02:15:03.573Z,9.64
2018-05-21T02:20:03.586Z,9.71
2018-05-21T02:25:03.566Z,9.74
2018-05-21T02:30:03.583Z,9.66
2018-05-21T02:35:03.573Z,9.62
2018-05-21T02:40:03.574Z,9.53
2018-05-21T02:45:03.582Z,9.48
2018-05-21T02:50:03.582Z,9.47
2018-05-21T02:55:03.575Z,9.41
2018-05-21T03:00:03.591Z,9.38
2018-05-21T03:05:03.582Z,9.35
2018-05-21T03:10:03.587Z,9.25
2018-05-21T03:15:03.612Z,9.25
2018-05-21T03:20:03.594Z,9.24
2018-05-21T03:25:03.595Z,9.3
2018-05-21T03:30:03.618Z,9.31
2018-05-21T03:35:03.598Z,9.42
2018-05-21T03:40:03.605Z,9.42
2018-05-21T03:45:03.623Z,9.41
2018-05-21T03:50:03.613Z,9.47
2018-05-21T03:55:03.614Z,9.46
2018-05-21T04:00:03.625Z,9.49
2018-05-21T04:05:03.615Z,9.51
2018-05-21T04:10:03.626Z,9.55
2018-05-21T04:15:03.627Z,9.56
2018-05-21T04:20:03.636Z,9.59
2018-05-21T04:25:03.630Z,9.6
2018-05-21T04:30:03.638Z,9.63
2018-05-21T04:35:03.642Z,9.68
2018-05-21T04:40:03.638Z,9.75
2018-05-21T04:45:03.644Z,9.82
2018-05-21T04:50:03.654Z,9.91
2018-05-21T04:55:03.650Z,10.07
2018-05-21T05:00:03.662Z,10.15
2018-05-21T05:05:03.664Z,10.35
2018-05-21T05:10:03.655Z,10.73
2018-05-21T05:15:03.659Z,10.86
2018-05-21T05:20:03.676Z,10.94
2018-05-21T05:25:03.672Z,11.09
2018-05-21T05:30:03.669Z,11.22
2018-05-21T05:35:03.677Z,11.41
2018-05-21T05:40:03.688Z,11.61
2018-05-21T05:45:03.686Z,11.79
2018-05-21T05:50:03.698Z,12.07
2018-05-21T05:55:03.674Z,12.29
2018-05-21T06:00:03.680Z,12.47
2018-05-21T06:05:03.690Z,12.63
2018-05-21T06:10:03.698Z,12.9
2018-05-21T06:15:03.761Z,13.17
2018-05-21T06:20:03.707Z,13.4
2018-05-21T06:25:03.697Z,13.67
2018-05-21T06:30:03.704Z,13.89
2018-05-21T06:35:03.718Z,14.13
2018-05-21T06:40:03.710Z,14.41
2018-05-21T06:45:03.719Z,14.59
2018-05-21T06:50:03.717Z,14.87
2018-05-21T06:55:03.718Z,15.43
2018-05-21T07:00:03.739Z,16.4
2018-05-21T07:05:03.716Z,17.29
2018-05-21T07:10:03.714Z,17.95
2018-05-21T07:15:03.727Z,18.68
2018-05-21T07:20:03.723Z,18.99
2018-05-21T07:25:03.745Z,19.91
2018-05-21T07:30:03.744Z,20.31
2018-05-21T07:35:03.733Z,20.54
2018-05-21T07:40:03.748Z,20.87
2018-05-21T07:45:03.754Z,21.1
2018-05-21T07:50:03.748Z,20.99
2018-05-21T07:55:03.766Z,21.5
2018-05-21T08:00:03.745Z,21.68
2018-05-21T08:05:03.755Z,21.7
2018-05-21T08:10:03.768Z,21.93
2018-05-21T08:15:03.772Z,22.36
2018-05-21T08:20:03.756Z,23.16
2018-05-21T08:25:03.762Z,23.01
2018-05-21T08:30:03.776Z,23.18
2018-05-21T08:35:03.792Z,23.11
2018-05-21T08:40:03.771Z,22.95
2018-05-21T08:45:03.816Z,23.66
2018-05-21T08:50:03.773Z,23.99
2018-05-21T08:55:03.824Z,23.83
2018-05-21T09:00:03.787Z,24.34
2018-05-21T09:05:03.811Z,25.06
2018-05-21T09:10:03.855Z,25.21
2018-05-21T09:15:03.798Z,25.14
2018-05-21T09:20:03.808Z,25.13
2018-05-21T09:25:03.810Z,25.59
2018-05-21T09:30:03.796Z,26.18
2018-05-21T09:35:03.817Z,26.2
2018-05-21T09:40:03.819Z,27.08
2018-05-21T09:45:03.814Z,27.12
2018-05-21T09:50:03.820Z,25.22
2018-05-21T09:55:03.824Z,25.14
2018-05-21T10:00:03.820Z,24.23
2018-05-21T10:05:03.831Z,24.19
2018-05-21T10:10:03.818Z,23.94
2018-05-21T10:15:03.818Z,24.64
2018-05-21T10:20:03.840Z,26.39
2018-05-21T10:25:03.843Z,27.07
2018-05-21T10:30:03.835Z,26.94
2018-05-21T10:35:03.847Z,27.13
2018-05-21T10:40:03.844Z,26.68
2018-05-21T10:45:03.844Z,25.56
2018-05-21T10:50:03.846Z,24.97
2018-05-21T10:55:03.847Z,24.84
2018-05-21T11:00:03.850Z,24.76
2018-05-21T11:05:03.848Z,25.52
2018-05-21T11:10:03.856Z,27.59
2018-05-21T11:15:03.865Z,28.78
2018-05-21T11:20:03.856Z,29.31
2018-05-21T11:25:03.973Z,29.89
2018-05-21T11:30:03.864Z,30.59
2018-05-21T11:35:03.934Z,30.32
2018-05-21T11:40:03.867Z,31.65
2018-05-21T11:45:03.870Z,31.26
2018-05-21T11:50:03.884Z,31.74
2018-05-21T11:55:03.873Z,33.16
2018-05-21T12:00:03.880Z,32.2
2018-05-21T12:05:03.886Z,32.52
2018-05-21T12:10:03.880Z,32.1
2018-05-21T12:15:03.884Z,31.63
2018-05-21T12:20:03.895Z,31.36
2018-05-21T12:25:03.892Z,31.73
2018-05-21T12:30:03.890Z,32.59
2018-05-21T12:35:03.898Z,32.69
2018-05-21T12:40:03.893Z,31.8
2018-05-21T12:45:03.914Z,31.94
2018-05-21T12:50:03.910Z,32.57
2018-05-21T12:55:03.904Z,32.59
2018-05-21T13:00:03.917Z,32.29
2018-05-21T13:05:03.921Z,31.49
2018-05-21T13:10:03.913Z,30.15
2018-05-21T13:15:03.917Z,28.26
2018-05-21T13:20:03.941Z,27.35
2018-05-21T13:25:03.915Z,26.71
2018-05-21T13:30:03.925Z,25.92
2018-05-21T13:35:03.940Z,25.71
2018-05-21T13:40:03.929Z,26.01
2018-05-21T13:45:03.933Z,26.45
2018-05-21T13:50:03.943Z,26.39
2018-05-21T13:55:03.934Z,26.42
2018-05-21T14:00:03.938Z,27.71
2018-05-21T14:05:03.952Z,29.2
2018-05-21T14:10:03.941Z,31.13
2018-05-21T14:15:03.941Z,31.22
2018-05-21T14:20:03.962Z,32.41
2018-05-21T14:25:03.990Z,32.31
2018-05-21T14:30:03.949Z,32.77
2018-05-21T14:35:03.973Z,33.44
2018-05-21T14:40:03.963Z,33.25
2018-05-21T14:45:03.963Z,32.78
2018-05-21T14:50:03.972Z,32.55
2018-05-21T14:55:04.041Z,32.59
2018-05-21T15:00:03.973Z,31.29
2018-05-21T15:05:03.972Z,32.15
2018-05-21T15:10:03.992Z,32.94
2018-05-21T15:15:03.976Z,33.13
2018-05-21T15:20:03.980Z,32.34
2018-05-21T15:25:04.001Z,32.26
2018-05-21T15:30:03.985Z,31.44
2018-05-21T15:35:03.990Z,31.79
2018-05-21T15:40:04.011Z,32.6
2018-05-21T15:45:03.992Z,31.45
2018-05-21T15:50:03.992Z,31.56
2018-05-21T15:55:04.060Z,30.62
2018-05-21T16:00:04.055Z,30.76
2018-05-21T16:05:04.050Z,30.53
2018-05-21T16:10:04.065Z,30.16
2018-05-21T16:15:04.057Z,29.74
2018-05-21T16:20:04.069Z,29.45
2018-05-21T16:25:04.082Z,28.15
2018-05-21T16:30:04.135Z,26.78
2018-05-21T16:35:04.076Z,25.29
2018-05-21T16:40:04.078Z,24.48
2018-05-21T16:45:04.088Z,23.95
2018-05-21T16:50:04.080Z,23.61
2018-05-21T16:55:04.086Z,23.36
2018-05-21T17:00:04.162Z,23.15
2018-05-21T17:05:04.106Z,22.96
2018-05-21T17:10:04.086Z,22.81
2018-05-21T17:15:04.107Z,22.63
2018-05-21T17:20:04.093Z,22.57
2018-05-21T17:25:04.097Z,22.4
2018-05-21T17:30:04.101Z,22.27
2018-05-21T17:35:04.099Z,22.05
2018-05-21T17:40:04.098Z,21.88
2018-05-21T17:45:04.122Z,21.68
2018-05-21T17:50:04.109Z,21.46
2018-05-21T17:55:04.110Z,21.3
2018-05-21T18:00:04.134Z,21.16
2018-05-21T18:05:04.114Z,20.96
2018-05-21T18:10:04.119Z,20.76
2018-05-21T18:15:04.147Z,20.54
2018-05-21T18:20:04.135Z,20.32
2018-05-21T18:25:04.141Z,20.09
2018-05-21T18:30:04.164Z,19.88
2018-05-21T18:35:04.149Z,19.69
2018-05-21T18:40:04.142Z,19.46
2018-05-21T18:45:04.165Z,19.25
2018-05-21T18:50:04.170Z,19.08
2018-05-21T18:55:04.165Z,18.82
2018-05-21T19:00:04.188Z,18.57
2018-05-21T19:05:04.150Z,18.33
2018-05-21T19:10:04.151Z,18.07
2018-05-21T19:15:04.165Z,17.8
2018-05-21T19:20:04.155Z,17.52
2018-05-21T19:25:04.160Z,17.25
2018-05-21T19:30:04.184Z,16.96
2018-05-21T19:35:04.258Z,16.71
2018-05-21T19:40:04.585Z,16.49
2018-05-21T19:45:04.158Z,16.35
2018-05-21T19:50:04.193Z,16.25
2018-05-21T19:55:04.177Z,16.16
2018-05-21T20:00:04.172Z,16.03
2018-05-21T20:05:04.181Z,15.92
2018-05-21T20:10:04.188Z,15.85
2018-05-21T20:15:04.190Z,15.74
2018-05-21T20:20:04.188Z,15.61
2018-05-21T20:25:04.192Z,15.43
2018-05-21T20:30:04.202Z,15.34
2018-05-21T20:35:04.195Z,15.24
2018-05-21T20:40:04.197Z,15.17
2018-05-21T20:45:04.211Z,15.19
2018-05-21T20:50:04.206Z,15.19
2018-05-21T20:55:04.208Z,15.13
2018-05-21T21:00:04.211Z,15.01
2018-05-21T21:05:04.219Z,14.95
2018-05-21T21:10:04.212Z,14.87
2018-05-21T21:15:04.226Z,14.83
2018-05-21T21:20:04.229Z,14.72
2018-05-21T21:25:04.235Z,14.58
2018-05-21T21:30:04.225Z,14.39
2018-05-21T21:35:04.240Z,14.18
2018-05-21T21:40:04.238Z,13.91
2018-05-21T21:45:04.231Z,13.71
2018-05-21T21:50:04.241Z,13.46
2018-05-21T21:55:04.238Z,13.1
2018-05-21T22:00:04.267Z,12.76
2018-05-21T22:05:04.263Z,12.53
2018-05-21T22:10:04.248Z,12.32
2018-05-21T22:15:04.249Z,12.05
2018-05-21T22:20:04.268Z,11.85
2018-05-21T22:25:04.256Z,11.61
2018-05-21T22:30:04.255Z,11.51
2018-05-21T22:35:04.268Z,11.56
2018-05-21T22:40:04.262Z,11.62
2018-05-21T22:45:04.261Z,11.67
2018-05-21T22:50:04.491Z,11.72
2018-05-21T22:55:04.290Z,11.71
2018-05-21T23:00:04.277Z,11.68
2018-05-21T23:05:04.280Z,11.63
2018-05-21T23:10:04.291Z,11.57
2018-05-21T23:15:04.279Z,11.43
2018-05-21T23:20:04.284Z,11.33
2018-05-21T23:25:04.295Z,11.28
2018-05-21T23:30:04.284Z,11.19
2018-05-21T23:35:04.298Z,11.17
2018-05-21T23:40:04.301Z,11.26
2018-05-21T23:45:04.296Z,11.27
2018-05-21T23:50:04.296Z,11.16
2018-05-21T23:55:04.322Z,11.16
